createdAt,value
2022-10-26T00:01:22.172Z,24.42
2022-10-26T00:03:49.864Z,25.98
2022-10-26T00:06:30.102Z,27.60
2022-10-26T00:08:58.092Z,28.25
2022-10-26T00:11:25.973Z,30.55
2022-10-26T00:13:53.663Z,29.40
2022-10-26T00:16:25.149Z,30.40
2022-10-26T00:18:53.260Z,29.67
2022-10-26T00:21:21.139Z,30.38
2022-10-26T00:23:48.759Z,28.73
2022-10-26T00:26:16.609Z,31.27
2022-10-26T00:28:44.219Z,31.60
2022-10-26T00:31:16.151Z,31.00
2022-10-26T00:33:43.860Z,31.35
2022-10-26T00:36:14.475Z,31.80
2022-10-26T00:38:50.037Z,32.23
2022-10-26T00:41:20.344Z,30.55
2022-10-26T00:43:48.962Z,30.30
2022-10-26T00:46:37.678Z,31.13
2022-10-26T00:49:14.849Z,30.98
2022-10-26T00:51:48.876Z,30.85
2022-10-26T00:54:19.208Z,30.40
2022-10-26T00:56:49.819Z,30.58
2022-10-26T00:59:19.011Z,32.28
2022-10-26T01:01:49.114Z,30.65
2022-10-26T01:04:18.437Z,30.50
2022-10-26T01:06:48.438Z,29.67
2022-10-26T01:09:16.936Z,29.73
2022-10-26T01:11:44.730Z,31.15
2022-10-26T01:14:15.192Z,29.95
2022-10-26T01:17:24.288Z,29.35
2022-10-26T01:20:03.677Z,29.52
2022-10-26T01:22:42.442Z,29.92
2022-10-26T01:25:39.078Z,29.23
2022-10-26T01:28:56.527Z,29.48
2022-10-26T01:31:35.579Z,28.98
2022-10-26T01:34:18.777Z,28.50
2022-10-26T01:36:56.587Z,29.70
2022-10-26T01:39:36.821Z,28.50
2022-10-26T01:42:08.495Z,27.83
2022-10-26T01:44:49.595Z,28.67
2022-10-26T01:47:20.858Z,28.95
2022-10-26T01:49:53.967Z,28.48
2022-10-26T01:52:22.861Z,28.60
2022-10-26T01:54:50.624Z,27.83
2022-10-26T01:57:21.340Z,28.20
2022-10-26T02:00:09.257Z,27.40
2022-10-26T02:02:46.777Z,27.92
2022-10-26T02:05:50.027Z,27.88
2022-10-26T02:08:27.757Z,27.48
2022-10-26T02:11:11.992Z,28.90
2022-10-26T02:13:51.824Z,26.33
2022-10-26T02:16:29.403Z,27.15
2022-10-26T02:19:29.503Z,27.38
2022-10-26T02:22:07.375Z,26.40
2022-10-26T02:24:37.502Z,26.83
2022-10-26T02:27:11.776Z,26.50
2022-10-26T02:32:10.160Z,26.95
2022-10-26T02:34:40.351Z,28.15
2022-10-26T02:37:09.412Z,28.38
2022-10-26T02:39:40.334Z,28.88
2022-10-26T02:42:11.038Z,26.30
2022-10-26T02:44:45.010Z,27.58
2022-10-26T02:47:13.321Z,27.75
2022-10-26T02:49:41.571Z,28.10
2022-10-26T02:52:22.969Z,28.52
2022-10-26T02:55:13.924Z,27.13
2022-10-26T02:57:45.132Z,26.13
2022-10-26T03:00:16.894Z,27.67
2022-10-26T03:02:51.850Z,28.45
2022-10-26T03:05:28.521Z,28.45
2022-10-26T03:07:56.860Z,28.48
2022-10-26T03:10:25.329Z,28.25
2022-10-26T03:12:53.685Z,28.88
2022-10-26T03:15:21.803Z,29.52
2022-10-26T03:17:49.813Z,29.10
2022-10-26T03:20:17.780Z,29.48
2022-10-26T03:22:48.255Z,30.05
2022-10-26T03:25:16.823Z,29.73
2022-10-26T03:27:44.955Z,31.17
2022-10-26T03:30:12.663Z,32.25
2022-10-26T03:32:40.465Z,29.80
2022-10-26T03:35:08.494Z,31.77
2022-10-26T03:37:36.322Z,31.65
2022-10-26T03:40:04.095Z,32.55
2022-10-26T03:42:36.477Z,31.65
2022-10-26T03:45:05.266Z,32.10
2022-10-26T03:47:33.097Z,31.58
2022-10-26T03:50:00.943Z,31.38
2022-10-26T03:52:28.781Z,30.45
2022-10-26T03:54:56.414Z,30.58
2022-10-26T03:57:24.337Z,31.33
2022-10-26T03:59:51.938Z,32.47
2022-10-26T04:02:19.670Z,30.20
2022-10-26T04:04:47.262Z,30.23
2022-10-26T04:07:15.014Z,29.75
2022-10-26T04:09:42.595Z,28.30
2022-10-26T04:12:10.341Z,28.30
2022-10-26T04:14:38.010Z,26.50
2022-10-26T04:17:05.772Z,24.90
2022-10-26T04:19:33.425Z,25.30
2022-10-26T04:22:01.184Z,24.95
2022-10-26T04:24:28.748Z,25.23
2022-10-26T04:26:56.548Z,25.23
2022-10-26T04:29:24.119Z,24.67
2022-10-26T04:31:51.895Z,25.17
2022-10-26T04:34:19.464Z,25.10
2022-10-26T04:36:47.262Z,24.02
2022-10-26T04:39:14.827Z,24.27
2022-10-26T04:41:42.850Z,24.17
2022-10-26T04:44:10.473Z,22.92
2022-10-26T04:46:38.486Z,24.48
2022-10-26T04:49:06.003Z,23.80
2022-10-26T04:51:33.801Z,25.00
2022-10-26T04:54:03.044Z,25.30
2022-10-26T04:56:31.223Z,24.95
2022-10-26T04:58:58.806Z,25.85
2022-10-26T05:01:26.662Z,27.08
2022-10-26T05:03:54.900Z,25.15
2022-10-26T05:06:22.734Z,26.52
2022-10-26T05:08:50.432Z,26.63
2022-10-26T05:11:18.247Z,27.10
2022-10-26T05:13:49.132Z,28.92
2022-10-26T05:16:17.420Z,28.17
2022-10-26T05:18:47.488Z,27.92
2022-10-26T05:21:19.619Z,28.10
2022-10-26T05:23:55.616Z,28.83
2022-10-26T05:26:24.063Z,28.58
2022-10-26T05:28:52.987Z,29.80
2022-10-26T05:31:21.331Z,28.92
2022-10-26T05:33:52.444Z,29.65
2022-10-26T05:36:20.690Z,30.58
2022-10-26T05:38:48.418Z,28.70
2022-10-26T05:41:16.465Z,29.60
2022-10-26T05:43:44.005Z,28.80
2022-10-26T05:46:11.792Z,29.80
2022-10-26T05:48:39.437Z,29.10
2022-10-26T05:51:07.384Z,27.90
2022-10-26T05:53:35.293Z,28.20
2022-10-26T05:56:06.037Z,28.70
2022-10-26T05:58:36.518Z,29.07
2022-10-26T06:01:22.275Z,28.17
2022-10-26T06:04:02.499Z,28.58
2022-10-26T06:06:42.125Z,28.42
2022-10-26T06:09:12.476Z,28.40
2022-10-26T06:11:40.680Z,28.48
2022-10-26T06:14:10.295Z,27.10
2022-10-26T06:17:03.456Z,25.02
2022-10-26T06:20:02.463Z,24.85
2022-10-26T06:23:00.683Z,24.35
2022-10-26T06:25:32.576Z,22.33
2022-10-26T06:28:28.294Z,23.23
2022-10-26T06:30:57.286Z,22.30
2022-10-26T06:33:30.303Z,23.20
2022-10-26T06:36:07.555Z,22.57
2022-10-26T06:38:38.082Z,22.60
2022-10-26T06:41:06.476Z,22.70
2022-10-26T06:43:36.266Z,21.60
2022-10-26T06:46:10.137Z,21.98
2022-10-26T06:49:01.117Z,21.40
2022-10-26T06:51:30.978Z,21.48
2022-10-26T06:54:13.349Z,21.30
2022-10-26T06:56:41.406Z,20.00
2022-10-26T06:59:15.299Z,21.38
2022-10-26T07:01:42.979Z,21.40
2022-10-26T07:04:10.938Z,22.38
2022-10-26T07:06:39.440Z,20.58
2022-10-26T07:09:07.475Z,21.65
2022-10-26T07:11:35.062Z,21.13
2022-10-26T07:14:02.880Z,20.40
2022-10-26T07:16:30.682Z,18.83
2022-10-26T07:18:58.540Z,19.58
2022-10-26T07:21:26.128Z,19.50
2022-10-26T07:23:57.284Z,17.52
2022-10-26T07:26:25.674Z,16.33
2022-10-26T07:28:53.461Z,15.10
2022-10-26T07:31:21.191Z,14.73
2022-10-26T07:33:49.012Z,14.30
2022-10-26T07:36:16.653Z,14.13
2022-10-26T07:38:44.404Z,14.88
2022-10-26T07:41:12.284Z,13.95
2022-10-26T07:43:40.208Z,12.57
2022-10-26T07:46:07.777Z,13.80
2022-10-26T07:48:35.799Z,13.20
2022-10-26T07:51:03.741Z,13.43
2022-10-26T07:53:31.532Z,12.48
2022-10-26T07:55:59.239Z,11.20
2022-10-26T07:58:27.376Z,11.23
2022-10-26T08:00:55.800Z,12.05
2022-10-26T08:03:23.937Z,10.73
2022-10-26T08:05:55.751Z,11.25
2022-10-26T08:08:23.626Z,11.98
2022-10-26T08:10:52.463Z,11.43
2022-10-26T08:13:20.306Z,11.35
2022-10-26T08:15:49.391Z,12.35
2022-10-26T08:18:17.441Z,12.93
2022-10-26T08:20:45.041Z,12.88
2022-10-26T08:23:12.857Z,13.43
2022-10-26T08:25:40.674Z,13.73
2022-10-26T08:28:08.572Z,14.70
2022-10-26T08:30:36.218Z,16.52
2022-10-26T08:33:08.514Z,16.80
2022-10-26T08:35:36.489Z,18.80
2022-10-26T08:38:04.611Z,17.10
2022-10-26T08:40:36.636Z,18.10
2022-10-26T08:43:30.927Z,18.73
2022-10-26T08:46:13.954Z,18.58
2022-10-26T08:48:48.015Z,18.58
2022-10-26T08:51:28.279Z,18.13
2022-10-26T08:54:24.531Z,18.23
2022-10-26T08:56:57.445Z,18.77
2022-10-26T08:59:46.336Z,17.58
2022-10-26T09:02:15.963Z,17.23
2022-10-26T09:04:44.431Z,18.02
2022-10-26T09:07:24.992Z,17.65
2022-10-26T09:10:37.170Z,17.90
2022-10-26T09:13:39.888Z,16.42
2022-10-26T09:16:38.555Z,16.20
2022-10-26T09:19:51.890Z,16.13
2022-10-26T09:22:43.850Z,16.80
2022-10-26T09:25:26.974Z,16.13
2022-10-26T09:28:02.720Z,16.20
2022-10-26T09:30:30.812Z,16.63
2022-10-26T09:33:18.658Z,17.05
2022-10-26T09:35:53.969Z,17.52
2022-10-26T09:38:41.055Z,19.13
2022-10-26T09:41:32.084Z,18.65
2022-10-26T09:44:10.260Z,18.95
2022-10-26T09:46:59.958Z,18.80
2022-10-26T09:49:41.368Z,19.13
2022-10-26T09:52:09.269Z,20.65
2022-10-26T09:54:37.201Z,19.42
2022-10-26T09:57:07.248Z,18.67
2022-10-26T09:59:40.202Z,18.25
2022-10-26T10:02:47.235Z,16.17
2022-10-26T10:08:27.473Z,17.10
2022-10-26T10:11:14.764Z,16.60
2022-10-26T10:13:45.938Z,15.32
2022-10-26T10:16:24.876Z,15.10
2022-10-26T10:19:00.867Z,14.85
2022-10-26T10:21:43.766Z,14.73
2022-10-26T10:24:28.614Z,15.85
2022-10-26T10:27:12.658Z,15.00
2022-10-26T10:29:43.051Z,14.88
2022-10-26T10:32:20.823Z,15.80
2022-10-26T10:34:50.877Z,17.33
2022-10-26T10:37:44.310Z,17.55
2022-10-26T10:40:24.484Z,15.73
2022-10-26T10:42:55.089Z,14.10
2022-10-26T10:45:29.142Z,14.20
2022-10-26T10:48:06.205Z,14.10
2022-10-26T10:50:36.447Z,13.43
2022-10-26T10:53:19.881Z,12.63
2022-10-26T10:56:21.234Z,13.45
2022-10-26T10:58:59.800Z,14.00
2022-10-26T11:01:36.795Z,14.98
2022-10-26T11:04:30.394Z,14.73
2022-10-26T11:07:03.586Z,13.02
2022-10-26T11:09:36.423Z,12.52
2022-10-26T11:12:19.457Z,12.02
2022-10-26T11:14:54.733Z,11.82
2022-10-26T11:17:30.898Z,11.68
2022-10-26T11:20:04.701Z,11.32
2022-10-26T11:22:54.456Z,12.30
2022-10-26T11:25:55.913Z,12.00
2022-10-26T11:28:49.808Z,11.93
2022-10-26T11:31:25.210Z,11.93
2022-10-26T11:34:06.274Z,11.75
2022-10-26T11:36:37.143Z,11.57
2022-10-26T11:39:12.942Z,11.48
2022-10-26T11:42:04.412Z,11.32
2022-10-26T11:44:59.226Z,10.98
2022-10-26T11:47:49.123Z,11.60
2022-10-26T11:50:25.599Z,11.98
2022-10-26T11:53:01.812Z,11.25
2022-10-26T11:55:29.837Z,12.38
2022-10-26T11:57:59.064Z,12.60
2022-10-26T12:00:27.885Z,11.18
2022-10-26T12:03:01.378Z,12.30
2022-10-26T12:05:40.785Z,11.93
2022-10-26T12:08:17.352Z,12.23
2022-10-26T12:10:53.027Z,12.30
2022-10-26T12:13:54.608Z,12.43
2022-10-26T12:16:49.296Z,12.80
2022-10-26T12:21:56.350Z,13.63
2022-10-26T12:24:24.162Z,12.70
2022-10-26T12:26:59.240Z,13.63
2022-10-26T12:29:31.868Z,13.27
2022-10-26T12:31:59.865Z,14.55
2022-10-26T12:34:30.646Z,16.52
2022-10-26T12:36:58.291Z,14.82
2022-10-26T12:39:31.931Z,15.32
2022-10-26T12:42:05.699Z,14.77
2022-10-26T12:44:46.001Z,15.98
2022-10-26T12:47:28.628Z,14.38
2022-10-26T12:50:02.565Z,14.25
2022-10-26T12:52:49.175Z,14.48
2022-10-26T12:55:38.144Z,14.45
2022-10-26T12:58:43.687Z,13.88
2022-10-26T13:01:47.083Z,13.93
2022-10-26T13:04:23.919Z,14.13
2022-10-26T13:07:09.755Z,14.45
2022-10-26T13:09:37.877Z,14.15
2022-10-26T13:12:06.410Z,14.60
2022-10-26T13:14:36.560Z,14.65
2022-10-26T13:17:07.351Z,14.75
2022-10-26T13:19:49.213Z,12.63
2022-10-26T13:22:21.371Z,10.82
2022-10-26T13:25:02.238Z,10.85
2022-10-26T13:27:33.229Z,10.38
2022-10-26T13:30:09.834Z,10.18
2022-10-26T13:32:41.825Z,9.88
2022-10-26T13:35:14.638Z,9.60
2022-10-26T13:37:49.251Z,9.85
2022-10-26T13:40:25.610Z,11.25
2022-10-26T13:42:57.620Z,10.50
2022-10-26T13:45:49.998Z,10.18
2022-10-26T13:48:24.533Z,9.90
2022-10-26T13:50:59.229Z,10.27
2022-10-26T13:53:41.218Z,12.18
2022-10-26T13:56:12.192Z,10.93
2022-10-26T13:58:47.888Z,11.60
2022-10-26T14:01:23.370Z,10.93
2022-10-26T14:03:51.928Z,10.73
2022-10-26T14:06:32.502Z,10.95
2022-10-26T14:09:22.532Z,10.68
2022-10-26T14:11:56.054Z,11.13
2022-10-26T14:14:29.660Z,10.88
2022-10-26T14:16:58.276Z,11.98
2022-10-26T14:19:31.196Z,11.63
2022-10-26T14:22:00.001Z,11.68
2022-10-26T14:24:46.841Z,11.02
2022-10-26T14:27:17.142Z,11.20
2022-10-26T14:29:49.900Z,11.02
2022-10-26T14:32:33.592Z,11.77
2022-10-26T14:35:01.686Z,11.75
2022-10-26T14:37:50.818Z,12.23
2022-10-26T14:40:26.081Z,13.10
2022-10-26T14:42:56.617Z,12.73
2022-10-26T14:45:47.678Z,12.13
2022-10-26T14:48:32.687Z,12.85
2022-10-26T14:51:10.768Z,13.75
2022-10-26T14:53:41.029Z,12.73
2022-10-26T14:56:31.631Z,14.02
2022-10-26T14:58:59.738Z,13.30
2022-10-26T15:01:31.803Z,12.65
2022-10-26T15:04:28.291Z,14.27
2022-10-26T15:07:08.630Z,14.32
2022-10-26T15:09:53.161Z,14.18
2022-10-26T15:12:28.426Z,14.73
2022-10-26T15:15:06.344Z,13.68
2022-10-26T15:17:40.845Z,14.05
2022-10-26T15:22:50.350Z,14.50
2022-10-26T15:25:39.047Z,15.80
2022-10-26T15:28:20.761Z,15.43
2022-10-26T15:31:04.593Z,16.02
2022-10-26T15:33:33.870Z,15.80
2022-10-26T15:36:19.262Z,15.75
2022-10-26T15:38:51.663Z,17.27
2022-10-26T15:41:30.072Z,18.40
2022-10-26T15:44:06.387Z,16.92
2022-10-26T15:46:36.363Z,21.35
2022-10-26T15:49:07.187Z,20.80
2022-10-26T15:51:35.294Z,20.73
2022-10-26T15:54:04.854Z,22.30
2022-10-26T15:56:32.913Z,23.23
2022-10-26T15:59:00.801Z,22.25
2022-10-26T16:01:29.837Z,23.65
2022-10-26T16:03:57.739Z,21.00
2022-10-26T16:06:34.477Z,21.92
2022-10-26T16:09:05.061Z,31.73
2022-10-26T16:11:33.424Z,29.63
2022-10-26T16:14:03.711Z,32.30
2022-10-26T16:16:32.430Z,33.22
2022-10-26T16:21:51.507Z,28.88
2022-10-26T16:24:19.514Z,26.73
2022-10-26T16:26:47.595Z,25.40
2022-10-26T16:29:15.721Z,29.75
2022-10-26T16:31:43.339Z,29.67
2022-10-26T16:34:11.242Z,32.85
2022-10-26T16:36:39.084Z,35.47
2022-10-26T16:39:07.725Z,41.17
2022-10-26T16:41:35.459Z,46.78
2022-10-26T16:44:03.247Z,40.92
2022-10-26T16:46:30.935Z,36.88
2022-10-26T16:48:59.982Z,34.03
2022-10-26T16:51:28.551Z,32.53
2022-10-26T16:53:57.547Z,32.03
2022-10-26T16:56:28.630Z,29.67
2022-10-26T16:58:57.194Z,32.85
2022-10-26T17:01:25.198Z,31.77
2022-10-26T17:03:53.709Z,32.13
2022-10-26T17:06:22.575Z,31.38
2022-10-26T17:08:50.399Z,35.35
2022-10-26T17:11:20.948Z,38.65
2022-10-26T17:13:52.902Z,31.55
2022-10-26T17:16:22.542Z,31.10
2022-10-26T17:18:51.437Z,27.08
2022-10-26T17:21:27.283Z,28.08
2022-10-26T17:23:55.479Z,25.92
2022-10-26T17:26:23.223Z,28.15
2022-10-26T17:28:56.714Z,26.70
2022-10-26T17:31:25.516Z,28.40
2022-10-26T17:33:53.699Z,28.58
2022-10-26T17:36:23.160Z,27.55
2022-10-26T17:38:53.147Z,26.70
2022-10-26T17:41:22.875Z,27.73
2022-10-26T17:43:51.436Z,27.55
2022-10-26T17:46:21.230Z,28.90
2022-10-26T17:48:52.949Z,39.90
2022-10-26T17:51:20.847Z,35.40
2022-10-26T17:53:49.548Z,39.20
2022-10-26T17:56:29.000Z,59.60
2022-10-26T17:59:02.059Z,61.55
2022-10-26T18:01:31.744Z,73.23
2022-10-26T18:04:00.487Z,61.28
2022-10-26T18:06:28.207Z,49.97
2022-10-26T18:08:59.110Z,52.25
2022-10-26T18:11:28.489Z,44.60
2022-10-26T18:13:57.516Z,43.40
2022-10-26T18:16:27.220Z,42.20
2022-10-26T18:19:05.461Z,40.05
2022-10-26T18:21:37.498Z,41.20
2022-10-26T18:24:07.349Z,42.17
2022-10-26T18:26:35.607Z,41.60
2022-10-26T18:29:04.400Z,42.47
2022-10-26T18:31:34.880Z,42.00
2022-10-26T18:34:05.820Z,41.95
2022-10-26T18:36:33.745Z,40.97
2022-10-26T18:39:01.618Z,42.58
2022-10-26T18:41:29.504Z,43.83
2022-10-26T18:44:01.639Z,43.40
2022-10-26T18:46:33.273Z,40.92
2022-10-26T18:49:01.329Z,42.95
2022-10-26T18:51:34.233Z,40.42
2022-10-26T18:54:03.665Z,40.22
2022-10-26T18:56:31.638Z,38.80
2022-10-26T18:59:00.403Z,38.40
2022-10-26T19:01:33.824Z,39.20
2022-10-26T19:04:08.021Z,43.00
2022-10-26T19:06:39.014Z,48.92
2022-10-26T19:09:09.126Z,48.60
2022-10-26T19:11:37.578Z,44.05
2022-10-26T19:14:05.539Z,42.17
2022-10-26T19:16:45.261Z,41.50
2022-10-26T19:19:16.337Z,42.08
2022-10-26T19:21:45.150Z,43.25
2022-10-26T19:24:15.331Z,58.97
2022-10-26T19:26:44.054Z,74.07
2022-10-26T19:29:15.508Z,59.65
2022-10-26T19:31:45.970Z,59.25
2022-10-26T19:34:15.082Z,65.05
2022-10-26T19:36:45.153Z,71.53
2022-10-26T19:39:18.099Z,88.63
2022-10-26T19:41:46.756Z,71.13
2022-10-26T19:44:16.568Z,70.35
2022-10-26T19:46:45.678Z,73.32
2022-10-26T19:49:13.593Z,72.07
2022-10-26T19:51:41.289Z,69.57
2022-10-26T19:54:09.190Z,73.72
2022-10-26T19:56:37.657Z,66.57
2022-10-26T19:59:06.617Z,68.93
2022-10-26T20:01:34.781Z,70.25
2022-10-26T20:04:03.165Z,66.78
2022-10-26T20:06:31.048Z,68.10
2022-10-26T20:08:59.998Z,69.00
2022-10-26T20:11:28.209Z,64.15
2022-10-26T20:13:56.447Z,63.45
2022-10-26T20:16:25.338Z,61.05
2022-10-26T20:18:53.242Z,65.05
2022-10-26T20:21:21.004Z,56.20
2022-10-26T20:23:48.891Z,62.75
2022-10-26T20:26:19.733Z,64.88
2022-10-26T20:28:51.030Z,63.40
2022-10-26T20:31:19.911Z,61.47
2022-10-26T20:33:54.509Z,56.30
2022-10-26T20:36:22.748Z,56.55
2022-10-26T20:38:52.018Z,55.78
2022-10-26T20:41:20.313Z,57.58
2022-10-26T20:43:48.462Z,57.15
2022-10-26T20:46:27.399Z,59.22
2022-10-26T20:48:55.664Z,54.35
2022-10-26T20:52:15.265Z,53.72
2022-10-26T20:54:53.184Z,59.05
2022-10-26T20:57:28.228Z,71.75
2022-10-26T21:00:03.868Z,75.22
2022-10-26T21:02:32.719Z,70.68
2022-10-26T21:05:00.659Z,65.82
2022-10-26T21:07:28.277Z,63.75
2022-10-26T21:09:56.096Z,60.42
2022-10-26T21:12:23.819Z,55.65
2022-10-26T21:14:51.539Z,57.28
2022-10-26T21:17:19.131Z,59.10
2022-10-26T21:19:46.892Z,60.90
2022-10-26T21:22:15.755Z,64.40
2022-10-26T21:24:43.547Z,61.00
2022-10-26T21:27:11.080Z,61.45
2022-10-26T21:29:38.822Z,59.05
2022-10-26T21:32:06.471Z,59.92
2022-10-26T21:34:34.395Z,60.70
2022-10-26T21:37:02.191Z,58.33
2022-10-26T21:39:30.018Z,69.07
2022-10-26T21:41:57.800Z,67.78
2022-10-26T21:44:40.481Z,64.53
2022-10-26T21:47:10.298Z,67.47
2022-10-26T21:49:38.647Z,71.40
2022-10-26T21:52:07.939Z,72.60
2022-10-26T21:54:35.807Z,73.55
2022-10-26T21:57:03.537Z,75.35
2022-10-26T21:59:31.305Z,74.38
2022-10-26T22:01:59.125Z,72.75
2022-10-26T22:04:26.986Z,73.90
2022-10-26T22:06:54.677Z,70.18
2022-10-26T22:09:22.459Z,70.80
2022-10-26T22:11:50.191Z,71.07
2022-10-26T22:14:18.754Z,74.53
2022-10-26T22:16:46.693Z,83.30
2022-10-26T22:19:14.510Z,87.75
2022-10-26T22:21:42.568Z,91.43
2022-10-26T22:24:11.272Z,77.60
2022-10-26T22:26:39.252Z,98.43
2022-10-26T22:29:07.019Z,87.65
2022-10-26T22:31:37.704Z,77.20
2022-10-26T22:34:08.450Z,71.85
2022-10-26T22:36:36.496Z,71.25
2022-10-26T22:39:04.586Z,73.53
2022-10-26T22:41:32.458Z,67.15
2022-10-26T22:44:00.530Z,67.45
2022-10-26T22:46:28.983Z,75.20
2022-10-26T22:48:59.763Z,70.25
2022-10-26T22:51:33.047Z,71.97
2022-10-26T22:54:03.052Z,72.70
2022-10-26T22:56:32.642Z,74.57
2022-10-26T22:59:01.015Z,67.80
2022-10-26T23:01:31.689Z,84.43
2022-10-26T23:04:00.565Z,73.68
2022-10-26T23:06:32.114Z,71.60
2022-10-26T23:09:00.401Z,75.18
2022-10-26T23:11:29.338Z,78.28
2022-10-26T23:14:02.531Z,81.18
2022-10-26T23:16:31.459Z,86.38
2022-10-26T23:19:00.144Z,85.88
2022-10-26T23:21:29.676Z,84.25
2022-10-26T23:23:58.161Z,81.90
2022-10-26T23:26:26.099Z,75.47
2022-10-26T23:28:53.860Z,79.55
2022-10-26T23:31:25.587Z,71.97
2022-10-26T23:33:55.555Z,68.60
2022-10-26T23:36:23.764Z,67.55
2022-10-26T23:38:51.781Z,67.70
2022-10-26T23:41:19.366Z,72.63
2022-10-26T23:43:47.327Z,65.38
2022-10-26T23:46:15.077Z,64.43
2022-10-26T23:48:42.980Z,70.70
2022-10-26T23:51:10.664Z,72.25
2022-10-26T23:53:39.115Z,71.20
2022-10-26T23:56:07.123Z,63.20
2022-10-26T23:58:34.991Z,61.95
